sensor_id;sensor_type;location;lat;lon;timestamp;temperature;humidity
12622;DHT22;6376;48.182;-1.644;2024-02-21T00:00:47;14.30;97.70
12622;DHT22;6376;48.182;-1.644;2024-02-21T00:03:13;14.30;97.70
12622;DHT22;6376;48.182;-1.644;2024-02-21T00:05:38;14.30;97.70
12622;DHT22;6376;48.182;-1.644;2024-02-21T00:08:04;14.20;97.60
12622;DHT22;6376;48.182;-1.644;2024-02-21T00:10:30;14.20;97.90
12622;DHT22;6376;48.182;-1.644;2024-02-21T00:12:58;14.20;97.70
12622;DHT22;6376;48.182;-1.644;2024-02-21T00:15:25;14.30;97.60
12622;DHT22;6376;48.182;-1.644;2024-02-21T00:17:51;14.20;97.60
12622;DHT22;6376;48.182;-1.644;2024-02-21T00:20:16;14.20;97.70
12622;DHT22;6376;48.182;-1.644;2024-02-21T00:22:43;14.20;97.70
12622;DHT22;6376;48.182;-1.644;2024-02-21T00:25:08;14.20;97.70
12622;DHT22;6376;48.182;-1.644;2024-02-21T00:27:34;14.10;97.70
12622;DHT22;6376;48.182;-1.644;2024-02-21T00:30:00;14.10;97.70
12622;DHT22;6376;48.182;-1.644;2024-02-21T00:32:26;14.10;97.70
12622;DHT22;6376;48.182;-1.644;2024-02-21T00:34:51;14.10;97.70
12622;DHT22;6376;48.182;-1.644;2024-02-21T00:37:17;14.10;97.70
12622;DHT22;6376;48.182;-1.644;2024-02-21T00:39:43;14.10;97.70
12622;DHT22;6376;48.182;-1.644;2024-02-21T00:42:08;14.10;97.70
12622;DHT22;6376;48.182;-1.644;2024-02-21T00:44:34;14.10;97.70
12622;DHT22;6376;48.182;-1.644;2024-02-21T00:47:00;14.10;97.70
12622;DHT22;6376;48.182;-1.644;2024-02-21T00:49:25;14.10;97.70
12622;DHT22;6376;48.182;-1.644;2024-02-21T00:51:51;14.00;97.60
12622;DHT22;6376;48.182;-1.644;2024-02-21T00:54:16;14.10;97.70
12622;DHT22;6376;48.182;-1.644;2024-02-21T00:56:43;14.00;97.60
12622;DHT22;6376;48.182;-1.644;2024-02-21T00:59:08;14.00;97.70
12622;DHT22;6376;48.182;-1.644;2024-02-21T01:01:34;14.00;97.70
12622;DHT22;6376;48.182;-1.644;2024-02-21T01:04:00;14.00;97.70
12622;DHT22;6376;48.182;-1.644;2024-02-21T01:06:25;14.00;97.70
12622;DHT22;6376;48.182;-1.644;2024-02-21T01:08:51;14.00;97.70
12622;DHT22;6376;48.182;-1.644;2024-02-21T01:11:17;14.00;97.70
12622;DHT22;6376;48.182;-1.644;2024-02-21T01:13:44;13.90;97.70
12622;DHT22;6376;48.182;-1.644;2024-02-21T01:16:09;13.90;97.60
12622;DHT22;6376;48.182;-1.644;2024-02-21T01:18:37;13.90;97.60
12622;DHT22;6376;48.182;-1.644;2024-02-21T01:21:04;13.90;97.70
12622;DHT22;6376;48.182;-1.644;2024-02-21T01:23:33;13.90;98.00
12622;DHT22;6376;48.182;-1.644;2024-02-21T01:25:59;13.90;97.70
12622;DHT22;6376;48.182;-1.644;2024-02-21T01:28:24;13.90;97.70
12622;DHT22;6376;48.182;-1.644;2024-02-21T01:30:50;13.90;97.70
12622;DHT22;6376;48.182;-1.644;2024-02-21T01:33:16;13.90;97.70
12622;DHT22;6376;48.182;-1.644;2024-02-21T01:35:42;13.90;97.70
12622;DHT22;6376;48.182;-1.644;2024-02-21T01:38:08;13.90;97.60
12622;DHT22;6376;48.182;-1.644;2024-02-21T01:40:33;13.90;97.70
12622;DHT22;6376;48.182;-1.644;2024-02-21T01:42:59;13.80;97.60
12622;DHT22;6376;48.182;-1.644;2024-02-21T01:45:25;13.80;97.60
12622;DHT22;6376;48.182;-1.644;2024-02-21T01:47:50;13.80;97.60
12622;DHT22;6376;48.182;-1.644;2024-02-21T01:50:17;13.80;97.70
12622;DHT22;6376;48.182;-1.644;2024-02-21T01:52:43;13.80;97.70
12622;DHT22;6376;48.182;-1.644;2024-02-21T01:55:11;13.80;97.60
12622;DHT22;6376;48.182;-1.644;2024-02-21T01:57:39;13.80;97.60
12622;DHT22;6376;48.182;-1.644;2024-02-21T02:00:06;13.80;97.60
12622;DHT22;6376;48.182;-1.644;2024-02-21T02:02:32;13.80;97.60
12622;DHT22;6376;48.182;-1.644;2024-02-21T02:04:58;13.80;97.60
12622;DHT22;6376;48.182;-1.644;2024-02-21T02:07:24;13.80;97.60
12622;DHT22;6376;48.182;-1.644;2024-02-21T02:09:50;13.80;97.60
12622;DHT22;6376;48.182;-1.644;2024-02-21T02:12:15;13.80;97.70
12622;DHT22;6376;48.182;-1.644;2024-02-21T02:14:41;13.70;97.60
12622;DHT22;6376;48.182;-1.644;2024-02-21T02:17:07;13.80;97.70
12622;DHT22;6376;48.182;-1.644;2024-02-21T02:19:32;13.70;97.60
12622;DHT22;6376;48.182;-1.644;2024-02-21T02:22:10;13.70;97.60
12622;DHT22;6376;48.182;-1.644;2024-02-21T02:24:37;13.70;97.60
12622;DHT22;6376;48.182;-1.644;2024-02-21T02:27:02;13.70;97.60
12622;DHT22;6376;48.182;-1.644;2024-02-21T02:29:28;13.70;97.60
12622;DHT22;6376;48.182;-1.644;2024-02-21T02:31:54;13.70;97.50
12622;DHT22;6376;48.182;-1.644;2024-02-21T02:34:19;13.70;97.50
12622;DHT22;6376;48.182;-1.644;2024-02-21T02:36:45;13.70;97.60
12622;DHT22;6376;48.182;-1.644;2024-02-21T02:39:10;13.70;97.50
12622;DHT22;6376;48.182;-1.644;2024-02-21T02:41:36;13.70;97.60
12622;DHT22;6376;48.182;-1.644;2024-02-21T02:44:02;13.70;97.50
12622;DHT22;6376;48.182;-1.644;2024-02-21T02:46:27;13.70;97.60
12622;DHT22;6376;48.182;-1.644;2024-02-21T02:48:53;13.60;97.60
12622;DHT22;6376;48.182;-1.644;2024-02-21T02:51:19;13.60;97.50
12622;DHT22;6376;48.182;-1.644;2024-02-21T02:53:44;13.60;97.50
12622;DHT22;6376;48.182;-1.644;2024-02-21T02:56:16;13.60;97.50
12622;DHT22;6376;48.182;-1.644;2024-02-21T02:58:43;13.60;97.60
12622;DHT22;6376;48.182;-1.644;2024-02-21T03:01:09;13.60;97.60
12622;DHT22;6376;48.182;-1.644;2024-02-21T03:03:34;13.60;97.40
12622;DHT22;6376;48.182;-1.644;2024-02-21T03:06:00;13.60;97.60
12622;DHT22;6376;48.182;-1.644;2024-02-21T03:08:26;13.60;97.50
12622;DHT22;6376;48.182;-1.644;2024-02-21T03:10:51;13.60;97.60
12622;DHT22;6376;48.182;-1.644;2024-02-21T03:13:17;13.60;97.60
12622;DHT22;6376;48.182;-1.644;2024-02-21T03:15:43;13.60;97.50
12622;DHT22;6376;48.182;-1.644;2024-02-21T03:18:08;13.60;97.60
12622;DHT22;6376;48.182;-1.644;2024-02-21T03:20:34;13.60;97.50
12622;DHT22;6376;48.182;-1.644;2024-02-21T03:22:59;13.60;97.50
12622;DHT22;6376;48.182;-1.644;2024-02-21T03:25:25;13.60;97.90
12622;DHT22;6376;48.182;-1.644;2024-02-21T03:27:51;13.60;97.50
12622;DHT22;6376;48.182;-1.644;2024-02-21T03:30:17;13.60;97.50
12622;DHT22;6376;48.182;-1.644;2024-02-21T03:32:42;13.50;97.50
12622;DHT22;6376;48.182;-1.644;2024-02-21T03:35:08;13.50;97.40
12622;DHT22;6376;48.182;-1.644;2024-02-21T03:37:34;13.50;97.50
12622;DHT22;6376;48.182;-1.644;2024-02-21T03:39:59;13.50;97.50
12622;DHT22;6376;48.182;-1.644;2024-02-21T03:42:25;13.50;97.40
12622;DHT22;6376;48.182;-1.644;2024-02-21T03:44:51;13.50;97.40
12622;DHT22;6376;48.182;-1.644;2024-02-21T03:47:16;13.50;97.50
12622;DHT22;6376;48.182;-1.644;2024-02-21T03:49:42;13.50;97.50
12622;DHT22;6376;48.182;-1.644;2024-02-21T03:52:08;13.50;97.40
12622;DHT22;6376;48.182;-1.644;2024-02-21T03:54:34;13.50;97.40
12622;DHT22;6376;48.182;-1.644;2024-02-21T03:57:00;13.50;97.80
12622;DHT22;6376;48.182;-1.644;2024-02-21T03:59:25;13.50;97.40
12622;DHT22;6376;48.182;-1.644;2024-02-21T04:01:52;13.50;97.40
12622;DHT22;6376;48.182;-1.644;2024-02-21T04:04:18;13.50;97.50
12622;DHT22;6376;48.182;-1.644;2024-02-21T04:06:51;13.50;97.40
12622;DHT22;6376;48.182;-1.644;2024-02-21T04:09:17;13.50;97.40
12622;DHT22;6376;48.182;-1.644;2024-02-21T04:11:43;13.50;97.40
12622;DHT22;6376;48.182;-1.644;2024-02-21T04:14:08;13.40;97.40
12622;DHT22;6376;48.182;-1.644;2024-02-21T04:16:34;13.40;97.40
12622;DHT22;6376;48.182;-1.644;2024-02-21T04:19:00;13.50;97.50
12622;DHT22;6376;48.182;-1.644;2024-02-21T04:21:27;13.40;97.40
12622;DHT22;6376;48.182;-1.644;2024-02-21T04:23:53;13.50;97.40
12622;DHT22;6376;48.182;-1.644;2024-02-21T04:26:18;13.50;97.50
12622;DHT22;6376;48.182;-1.644;2024-02-21T04:28:45;13.40;97.40
12622;DHT22;6376;48.182;-1.644;2024-02-21T04:31:11;13.40;97.40
12622;DHT22;6376;48.182;-1.644;2024-02-21T04:33:37;13.40;97.50
12622;DHT22;6376;48.182;-1.644;2024-02-21T04:36:02;13.40;97.40
12622;DHT22;6376;48.182;-1.644;2024-02-21T04:38:28;13.40;97.40
12622;DHT22;6376;48.182;-1.644;2024-02-21T04:40:55;13.40;97.50
12622;DHT22;6376;48.182;-1.644;2024-02-21T04:43:24;13.40;97.40
12622;DHT22;6376;48.182;-1.644;2024-02-21T04:45:50;13.40;97.40
12622;DHT22;6376;48.182;-1.644;2024-02-21T04:48:16;13.40;97.40
12622;DHT22;6376;48.182;-1.644;2024-02-21T04:50:42;13.40;97.40
12622;DHT22;6376;48.182;-1.644;2024-02-21T04:53:07;13.40;97.50
12622;DHT22;6376;48.182;-1.644;2024-02-21T04:55:33;13.40;97.50
12622;DHT22;6376;48.182;-1.644;2024-02-21T04:57:58;13.40;97.40
12622;DHT22;6376;48.182;-1.644;2024-02-21T05:00:26;13.40;97.40
12622;DHT22;6376;48.182;-1.644;2024-02-21T05:02:51;13.40;97.50
12622;DHT22;6376;48.182;-1.644;2024-02-21T05:05:17;13.40;97.50
12622;DHT22;6376;48.182;-1.644;2024-02-21T05:07:42;13.40;97.50
12622;DHT22;6376;48.182;-1.644;2024-02-21T05:10:08;13.40;97.50
12622;DHT22;6376;48.182;-1.644;2024-02-21T05:12:35;13.40;97.40
12622;DHT22;6376;48.182;-1.644;2024-02-21T05:15:01;13.40;97.50
12622;DHT22;6376;48.182;-1.644;2024-02-21T05:17:26;13.30;97.40
12622;DHT22;6376;48.182;-1.644;2024-02-21T05:19:52;13.40;97.40
12622;DHT22;6376;48.182;-1.644;2024-02-21T05:22:17;13.30;97.40
12622;DHT22;6376;48.182;-1.644;2024-02-21T05:24:44;13.40;97.50
12622;DHT22;6376;48.182;-1.644;2024-02-21T05:27:10;13.30;97.40
12622;DHT22;6376;48.182;-1.644;2024-02-21T05:29:36;13.30;97.50
12622;DHT22;6376;48.182;-1.644;2024-02-21T05:32:01;13.30;97.40
12622;DHT22;6376;48.182;-1.644;2024-02-21T05:34:27;13.30;97.50
12622;DHT22;6376;48.182;-1.644;2024-02-21T05:36:53;13.30;97.40
12622;DHT22;6376;48.182;-1.644;2024-02-21T05:39:19;13.30;97.50
12622;DHT22;6376;48.182;-1.644;2024-02-21T05:41:45;13.30;97.50
12622;DHT22;6376;48.182;-1.644;2024-02-21T05:44:11;13.30;97.40
12622;DHT22;6376;48.182;-1.644;2024-02-21T05:46:37;13.30;97.40
12622;DHT22;6376;48.182;-1.644;2024-02-21T05:49:03;13.30;97.50
12622;DHT22;6376;48.182;-1.644;2024-02-21T05:51:35;13.30;97.50
12622;DHT22;6376;48.182;-1.644;2024-02-21T05:54:01;13.30;97.40
12622;DHT22;6376;48.182;-1.644;2024-02-21T05:56:26;13.30;97.40
12622;DHT22;6376;48.182;-1.644;2024-02-21T05:58:52;13.30;97.50
12622;DHT22;6376;48.182;-1.644;2024-02-21T06:01:18;13.30;97.50
12622;DHT22;6376;48.182;-1.644;2024-02-21T06:03:44;13.30;97.40
12622;DHT22;6376;48.182;-1.644;2024-02-21T06:06:09;13.30;97.40
12622;DHT22;6376;48.182;-1.644;2024-02-21T06:08:35;13.30;97.40
12622;DHT22;6376;48.182;-1.644;2024-02-21T06:11:00;13.20;97.40
12622;DHT22;6376;48.182;-1.644;2024-02-21T06:13:26;13.30;97.50
12622;DHT22;6376;48.182;-1.644;2024-02-21T06:15:52;13.20;97.40
12622;DHT22;6376;48.182;-1.644;2024-02-21T06:18:18;13.20;97.40
12622;DHT22;6376;48.182;-1.644;2024-02-21T06:20:44;13.30;97.50
12622;DHT22;6376;48.182;-1.644;2024-02-21T06:23:20;13.20;97.40
12622;DHT22;6376;48.182;-1.644;2024-02-21T06:25:46;13.30;97.50
12622;DHT22;6376;48.182;-1.644;2024-02-21T06:28:13;13.20;97.40
12622;DHT22;6376;48.182;-1.644;2024-02-21T06:30:40;13.20;97.40
12622;DHT22;6376;48.182;-1.644;2024-02-21T06:33:05;13.20;97.40
12622;DHT22;6376;48.182;-1.644;2024-02-21T06:35:33;13.20;97.40
12622;DHT22;6376;48.182;-1.644;2024-02-21T06:37:59;13.20;97.40
12622;DHT22;6376;48.182;-1.644;2024-02-21T06:40:24;13.20;97.40
12622;DHT22;6376;48.182;-1.644;2024-02-21T06:42:50;13.20;97.40
12622;DHT22;6376;48.182;-1.644;2024-02-21T06:45:16;13.20;97.40
12622;DHT22;6376;48.182;-1.644;2024-02-21T06:47:42;13.20;97.40
12622;DHT22;6376;48.182;-1.644;2024-02-21T06:50:09;13.20;97.40
12622;DHT22;6376;48.182;-1.644;2024-02-21T06:52:35;13.20;97.40
12622;DHT22;6376;48.182;-1.644;2024-02-21T06:55:01;13.20;97.40
12622;DHT22;6376;48.182;-1.644;2024-02-21T06:57:28;13.20;97.40
12622;DHT22;6376;48.182;-1.644;2024-02-21T06:59:54;13.20;97.40
12622;DHT22;6376;48.182;-1.644;2024-02-21T07:02:20;13.20;97.40
12622;DHT22;6376;48.182;-1.644;2024-02-21T07:04:45;13.20;97.40
12622;DHT22;6376;48.182;-1.644;2024-02-21T07:07:11;13.20;97.40
12622;DHT22;6376;48.182;-1.644;2024-02-21T07:09:36;13.20;97.40
12622;DHT22;6376;48.182;-1.644;2024-02-21T07:12:02;13.20;97.40
12622;DHT22;6376;48.182;-1.644;2024-02-21T07:14:29;13.20;97.40
12622;DHT22;6376;48.182;-1.644;2024-02-21T07:16:55;13.20;97.40
12622;DHT22;6376;48.182;-1.644;2024-02-21T07:19:22;13.20;97.40
12622;DHT22;6376;48.182;-1.644;2024-02-21T07:21:48;13.20;97.40
12622;DHT22;6376;48.182;-1.644;2024-02-21T07:24:13;13.20;97.40
12622;DHT22;6376;48.182;-1.644;2024-02-21T07:26:42;13.20;97.40
12622;DHT22;6376;48.182;-1.644;2024-02-21T07:29:08;13.20;97.40
12622;DHT22;6376;48.182;-1.644;2024-02-21T07:31:43;13.20;97.40
12622;DHT22;6376;48.182;-1.644;2024-02-21T07:34:09;13.20;97.40
12622;DHT22;6376;48.182;-1.644;2024-02-21T07:36:35;13.20;97.40
12622;DHT22;6376;48.182;-1.644;2024-02-21T07:39:03;13.20;97.40
12622;DHT22;6376;48.182;-1.644;2024-02-21T07:41:30;13.20;97.40
12622;DHT22;6376;48.182;-1.644;2024-02-21T07:43:56;13.20;97.40
12622;DHT22;6376;48.182;-1.644;2024-02-21T07:46:21;13.20;97.40
12622;DHT22;6376;48.182;-1.644;2024-02-21T07:48:47;13.20;97.40
12622;DHT22;6376;48.182;-1.644;2024-02-21T07:51:13;13.20;97.40
12622;DHT22;6376;48.182;-1.644;2024-02-21T07:53:39;13.20;97.40
12622;DHT22;6376;48.182;-1.644;2024-02-21T07:56:12;13.20;97.40
12622;DHT22;6376;48.182;-1.644;2024-02-21T07:58:39;13.20;97.40
12622;DHT22;6376;48.182;-1.644;2024-02-21T08:01:05;13.20;97.40
12622;DHT22;6376;48.182;-1.644;2024-02-21T08:03:30;13.20;97.40
12622;DHT22;6376;48.182;-1.644;2024-02-21T08:05:56;13.20;97.40
12622;DHT22;6376;48.182;-1.644;2024-02-21T08:08:22;13.20;97.40
12622;DHT22;6376;48.182;-1.644;2024-02-21T08:10:50;13.20;97.40
12622;DHT22;6376;48.182;-1.644;2024-02-21T08:13:16;13.20;97.50
12622;DHT22;6376;48.182;-1.644;2024-02-21T08:15:42;13.10;97.40
12622;DHT22;6376;48.182;-1.644;2024-02-21T08:18:08;13.10;97.40
12622;DHT22;6376;48.182;-1.644;2024-02-21T08:20:34;13.10;97.40
12622;DHT22;6376;48.182;-1.644;2024-02-21T08:23:00;13.10;97.40
12622;DHT22;6376;48.182;-1.644;2024-02-21T08:25:25;13.20;97.50
12622;DHT22;6376;48.182;-1.644;2024-02-21T08:27:51;13.20;97.50
12622;DHT22;6376;48.182;-1.644;2024-02-21T08:30:17;13.10;97.40
12622;DHT22;6376;48.182;-1.644;2024-02-21T08:32:43;13.20;97.50
12622;DHT22;6376;48.182;-1.644;2024-02-21T08:35:09;13.10;97.50
12622;DHT22;6376;48.182;-1.644;2024-02-21T08:37:34;13.10;97.50
12622;DHT22;6376;48.182;-1.644;2024-02-21T08:40:00;13.10;97.50
12622;DHT22;6376;48.182;-1.644;2024-02-21T08:42:34;13.20;97.50
12622;DHT22;6376;48.182;-1.644;2024-02-21T08:45:00;13.20;97.50
12622;DHT22;6376;48.182;-1.644;2024-02-21T08:47:26;13.20;97.60
12622;DHT22;6376;48.182;-1.644;2024-02-21T08:49:52;13.10;97.50
12622;DHT22;6376;48.182;-1.644;2024-02-21T08:52:18;13.10;97.50
12622;DHT22;6376;48.182;-1.644;2024-02-21T08:54:43;13.20;97.50
12622;DHT22;6376;48.182;-1.644;2024-02-21T08:57:09;13.10;97.50
12622;DHT22;6376;48.182;-1.644;2024-02-21T08:59:35;13.10;97.50
12622;DHT22;6376;48.182;-1.644;2024-02-21T09:02:00;13.10;97.60
12622;DHT22;6376;48.182;-1.644;2024-02-21T09:04:28;13.10;97.60
12622;DHT22;6376;48.182;-1.644;2024-02-21T09:06:54;13.10;97.60
12622;DHT22;6376;48.182;-1.644;2024-02-21T09:09:20;13.10;97.60
12622;DHT22;6376;48.182;-1.644;2024-02-21T09:11:45;13.10;97.60
12622;DHT22;6376;48.182;-1.644;2024-02-21T09:14:11;13.10;97.50
12622;DHT22;6376;48.182;-1.644;2024-02-21T09:16:37;13.10;97.60
12622;DHT22;6376;48.182;-1.644;2024-02-21T09:19:03;13.10;97.60
12622;DHT22;6376;48.182;-1.644;2024-02-21T09:21:28;13.10;97.60
12622;DHT22;6376;48.182;-1.644;2024-02-21T09:23:54;13.10;97.60
12622;DHT22;6376;48.182;-1.644;2024-02-21T09:26:20;13.10;97.60
12622;DHT22;6376;48.182;-1.644;2024-02-21T09:28:45;13.10;97.60
12622;DHT22;6376;48.182;-1.644;2024-02-21T09:31:11;13.10;97.60
12622;DHT22;6376;48.182;-1.644;2024-02-21T09:33:37;13.10;97.60
12622;DHT22;6376;48.182;-1.644;2024-02-21T09:36:03;13.10;97.60
12622;DHT22;6376;48.182;-1.644;2024-02-21T09:38:31;13.10;97.60
12622;DHT22;6376;48.182;-1.644;2024-02-21T09:41:08;13.10;97.60
12622;DHT22;6376;48.182;-1.644;2024-02-21T09:43:37;13.10;97.60
12622;DHT22;6376;48.182;-1.644;2024-02-21T09:46:04;13.10;97.70
12622;DHT22;6376;48.182;-1.644;2024-02-21T09:48:34;13.10;97.60
12622;DHT22;6376;48.182;-1.644;2024-02-21T09:51:04;13.10;97.60
12622;DHT22;6376;48.182;-1.644;2024-02-21T09:53:32;13.10;97.70
12622;DHT22;6376;48.182;-1.644;2024-02-21T09:55:58;13.10;97.70
12622;DHT22;6376;48.182;-1.644;2024-02-21T09:58:26;13.10;97.70
12622;DHT22;6376;48.182;-1.644;2024-02-21T10:00:52;13.10;97.70
12622;DHT22;6376;48.182;-1.644;2024-02-21T10:03:18;13.20;98.00
12622;DHT22;6376;48.182;-1.644;2024-02-21T10:05:48;13.20;97.70
12622;DHT22;6376;48.182;-1.644;2024-02-21T10:08:15;13.10;97.70
12622;DHT22;6376;48.182;-1.644;2024-02-21T10:10:45;13.10;97.70
12622;DHT22;6376;48.182;-1.644;2024-02-21T10:13:21;13.10;97.70
12622;DHT22;6376;48.182;-1.644;2024-02-21T10:15:47;13.10;97.70
12622;DHT22;6376;48.182;-1.644;2024-02-21T10:18:17;13.10;97.80
12622;DHT22;6376;48.182;-1.644;2024-02-21T10:20:43;13.10;97.80
12622;DHT22;6376;48.182;-1.644;2024-02-21T10:23:09;13.10;97.70
12622;DHT22;6376;48.182;-1.644;2024-02-21T10:25:35;13.10;97.80
12622;DHT22;6376;48.182;-1.644;2024-02-21T10:28:04;13.10;97.70
12622;DHT22;6376;48.182;-1.644;2024-02-21T10:30:29;13.10;97.80
12622;DHT22;6376;48.182;-1.644;2024-02-21T10:32:56;13.10;97.80
12622;DHT22;6376;48.182;-1.644;2024-02-21T10:37:53;13.10;97.80
12622;DHT22;6376;48.182;-1.644;2024-02-21T10:40:26;13.10;97.80
12622;DHT22;6376;48.182;-1.644;2024-02-21T10:43:00;13.10;97.80
12622;DHT22;6376;48.182;-1.644;2024-02-21T10:45:34;13.10;97.80
12622;DHT22;6376;48.182;-1.644;2024-02-21T10:48:12;13.10;98.10
12622;DHT22;6376;48.182;-1.644;2024-02-21T10:50:51;13.20;97.80
12622;DHT22;6376;48.182;-1.644;2024-02-21T10:56:33;13.10;97.80
12622;DHT22;6376;48.182;-1.644;2024-02-21T10:59:05;13.10;97.80
12622;DHT22;6376;48.182;-1.644;2024-02-21T11:01:31;13.10;97.80
12622;DHT22;6376;48.182;-1.644;2024-02-21T11:04:01;12.50;97.60
12622;DHT22;6376;48.182;-1.644;2024-02-21T11:06:28;13.10;97.90
12622;DHT22;6376;48.182;-1.644;2024-02-21T11:09:04;13.20;97.90
12622;DHT22;6376;48.182;-1.644;2024-02-21T11:11:49;13.20;97.90
12622;DHT22;6376;48.182;-1.644;2024-02-21T11:14:20;13.20;97.90
12622;DHT22;6376;48.182;-1.644;2024-02-21T11:16:47;13.20;97.80
12622;DHT22;6376;48.182;-1.644;2024-02-21T11:21:45;13.20;97.90
12622;DHT22;6376;48.182;-1.644;2024-02-21T11:24:11;13.20;97.90
12622;DHT22;6376;48.182;-1.644;2024-02-21T11:26:40;13.20;97.80
12622;DHT22;6376;48.182;-1.644;2024-02-21T11:29:09;13.20;97.90
12622;DHT22;6376;48.182;-1.644;2024-02-21T11:31:40;13.20;97.90
12622;DHT22;6376;48.182;-1.644;2024-02-21T11:34:12;13.20;97.80
12622;DHT22;6376;48.182;-1.644;2024-02-21T11:36:47;13.20;97.80
12622;DHT22;6376;48.182;-1.644;2024-02-21T11:39:25;13.20;97.80
12622;DHT22;6376;48.182;-1.644;2024-02-21T11:42:05;13.20;97.80
12622;DHT22;6376;48.182;-1.644;2024-02-21T11:44:35;13.20;97.80
12622;DHT22;6376;48.182;-1.644;2024-02-21T11:47:03;13.20;97.80
12622;DHT22;6376;48.182;-1.644;2024-02-21T11:49:29;13.20;97.80
12622;DHT22;6376;48.182;-1.644;2024-02-21T11:51:59;13.20;97.80
12622;DHT22;6376;48.182;-1.644;2024-02-21T11:54:26;13.20;97.80
12622;DHT22;6376;48.182;-1.644;2024-02-21T11:56:52;13.20;97.90
12622;DHT22;6376;48.182;-1.644;2024-02-21T11:59:18;13.20;97.80
12622;DHT22;6376;48.182;-1.644;2024-02-21T12:01:43;13.20;98.10
12622;DHT22;6376;48.182;-1.644;2024-02-21T12:04:09;13.20;97.70
12622;DHT22;6376;48.182;-1.644;2024-02-21T12:06:35;13.20;97.70
12622;DHT22;6376;48.182;-1.644;2024-02-21T12:09:01;13.20;97.70
12622;DHT22;6376;48.182;-1.644;2024-02-21T12:11:26;13.20;97.70
12622;DHT22;6376;48.182;-1.644;2024-02-21T12:14:02;13.30;97.70
12622;DHT22;6376;48.182;-1.644;2024-02-21T12:16:29;13.20;97.70
12622;DHT22;6376;48.182;-1.644;2024-02-21T12:18:56;13.20;97.70
12622;DHT22;6376;48.182;-1.644;2024-02-21T12:21:33;13.20;97.70
12622;DHT22;6376;48.182;-1.644;2024-02-21T12:24:00;13.20;97.60
12622;DHT22;6376;48.182;-1.644;2024-02-21T12:26:26;13.20;97.70
12622;DHT22;6376;48.182;-1.644;2024-02-21T12:28:54;13.20;97.70
12622;DHT22;6376;48.182;-1.644;2024-02-21T12:31:21;13.20;97.70
12622;DHT22;6376;48.182;-1.644;2024-02-21T12:33:47;13.20;97.70
12622;DHT22;6376;48.182;-1.644;2024-02-21T12:36:13;13.20;97.70
12622;DHT22;6376;48.182;-1.644;2024-02-21T12:38:40;13.20;97.70
12622;DHT22;6376;48.182;-1.644;2024-02-21T12:41:05;13.20;97.70
12622;DHT22;6376;48.182;-1.644;2024-02-21T12:43:32;13.20;97.70
12622;DHT22;6376;48.182;-1.644;2024-02-21T12:45:59;13.20;97.70
12622;DHT22;6376;48.182;-1.644;2024-02-21T12:48:25;13.20;97.70
12622;DHT22;6376;48.182;-1.644;2024-02-21T12:50:51;13.20;97.70
12622;DHT22;6376;48.182;-1.644;2024-02-21T12:53:20;13.20;97.70
12622;DHT22;6376;48.182;-1.644;2024-02-21T12:55:50;13.20;97.70
12622;DHT22;6376;48.182;-1.644;2024-02-21T12:58:16;13.20;97.70
12622;DHT22;6376;48.182;-1.644;2024-02-21T13:00:42;13.20;97.70
12622;DHT22;6376;48.182;-1.644;2024-02-21T13:03:08;13.20;97.70
12622;DHT22;6376;48.182;-1.644;2024-02-21T13:05:37;13.20;97.70
12622;DHT22;6376;48.182;-1.644;2024-02-21T13:08:08;13.10;97.70
12622;DHT22;6376;48.182;-1.644;2024-02-21T13:10:34;13.20;97.70
12622;DHT22;6376;48.182;-1.644;2024-02-21T13:13:03;13.20;97.70
12622;DHT22;6376;48.182;-1.644;2024-02-21T13:15:28;13.10;97.70
12622;DHT22;6376;48.182;-1.644;2024-02-21T13:17:57;13.20;97.70
12622;DHT22;6376;48.182;-1.644;2024-02-21T13:20:25;13.10;97.70
12622;DHT22;6376;48.182;-1.644;2024-02-21T13:22:50;13.10;97.70
12622;DHT22;6376;48.182;-1.644;2024-02-21T13:25:16;13.20;97.70
12622;DHT22;6376;48.182;-1.644;2024-02-21T13:27:45;13.10;97.70
12622;DHT22;6376;48.182;-1.644;2024-02-21T13:30:11;13.10;97.70
12622;DHT22;6376;48.182;-1.644;2024-02-21T13:32:38;13.10;97.70
12622;DHT22;6376;48.182;-1.644;2024-02-21T13:35:04;13.10;97.70
12622;DHT22;6376;48.182;-1.644;2024-02-21T13:37:29;13.10;97.70
12622;DHT22;6376;48.182;-1.644;2024-02-21T13:39:55;13.10;97.70
12622;DHT22;6376;48.182;-1.644;2024-02-21T13:42:21;13.10;97.70
12622;DHT22;6376;48.182;-1.644;2024-02-21T13:44:47;13.10;97.70
12622;DHT22;6376;48.182;-1.644;2024-02-21T13:47:14;13.10;97.70
12622;DHT22;6376;48.182;-1.644;2024-02-21T13:49:40;13.10;97.70
12622;DHT22;6376;48.182;-1.644;2024-02-21T13:52:05;13.10;97.70
12622;DHT22;6376;48.182;-1.644;2024-02-21T13:54:31;13.10;97.70
12622;DHT22;6376;48.182;-1.644;2024-02-21T13:56:57;13.10;97.80
12622;DHT22;6376;48.182;-1.644;2024-02-21T13:59:22;13.10;97.80
12622;DHT22;6376;48.182;-1.644;2024-02-21T14:01:48;13.10;97.70
12622;DHT22;6376;48.182;-1.644;2024-02-21T14:04:13;13.10;97.80
12622;DHT22;6376;48.182;-1.644;2024-02-21T14:06:40;13.10;97.80
12622;DHT22;6376;48.182;-1.644;2024-02-21T14:09:12;13.10;97.80
12622;DHT22;6376;48.182;-1.644;2024-02-21T14:11:37;13.10;97.70
12622;DHT22;6376;48.182;-1.644;2024-02-21T14:14:07;13.10;97.80
12622;DHT22;6376;48.182;-1.644;2024-02-21T14:16:32;13.10;97.80
12622;DHT22;6376;48.182;-1.644;2024-02-21T14:18:58;13.10;97.80
12622;DHT22;6376;48.182;-1.644;2024-02-21T14:21:24;13.10;97.90
12622;DHT22;6376;48.182;-1.644;2024-02-21T14:23:49;13.10;97.80
12622;DHT22;6376;48.182;-1.644;2024-02-21T14:26:15;13.10;97.90
12622;DHT22;6376;48.182;-1.644;2024-02-21T14:28:41;13.10;97.80
12622;DHT22;6376;48.182;-1.644;2024-02-21T14:31:07;13.10;97.90
12622;DHT22;6376;48.182;-1.644;2024-02-21T14:33:37;13.10;97.90
12622;DHT22;6376;48.182;-1.644;2024-02-21T14:36:03;13.10;97.90
12622;DHT22;6376;48.182;-1.644;2024-02-21T14:38:29;13.20;97.90
12622;DHT22;6376;48.182;-1.644;2024-02-21T14:40:55;13.10;97.80
12622;DHT22;6376;48.182;-1.644;2024-02-21T14:43:20;13.10;97.90
12622;DHT22;6376;48.182;-1.644;2024-02-21T14:45:49;13.10;97.90
12622;DHT22;6376;48.182;-1.644;2024-02-21T14:48:15;13.10;97.90
12622;DHT22;6376;48.182;-1.644;2024-02-21T14:50:41;13.10;97.90
12622;DHT22;6376;48.182;-1.644;2024-02-21T14:53:08;13.10;97.90
12622;DHT22;6376;48.182;-1.644;2024-02-21T14:55:34;13.20;98.00
12622;DHT22;6376;48.182;-1.644;2024-02-21T14:58:00;13.10;98.00
12622;DHT22;6376;48.182;-1.644;2024-02-21T15:00:26;13.20;98.10
12622;DHT22;6376;48.182;-1.644;2024-02-21T15:02:58;13.10;98.00
12622;DHT22;6376;48.182;-1.644;2024-02-21T15:05:24;13.10;98.00
12622;DHT22;6376;48.182;-1.644;2024-02-21T15:07:50;13.20;98.00
12622;DHT22;6376;48.182;-1.644;2024-02-21T15:10:16;13.10;98.00
12622;DHT22;6376;48.182;-1.644;2024-02-21T15:12:47;13.10;98.00
12622;DHT22;6376;48.182;-1.644;2024-02-21T15:15:13;13.10;98.00
12622;DHT22;6376;48.182;-1.644;2024-02-21T15:17:39;13.20;98.10
12622;DHT22;6376;48.182;-1.644;2024-02-21T15:20:05;13.10;98.10
12622;DHT22;6376;48.182;-1.644;2024-02-21T15:22:35;13.20;98.10
12622;DHT22;6376;48.182;-1.644;2024-02-21T15:25:01;13.20;98.10
12622;DHT22;6376;48.182;-1.644;2024-02-21T15:27:27;13.20;98.30
12622;DHT22;6376;48.182;-1.644;2024-02-21T15:29:55;13.20;98.10
12622;DHT22;6376;48.182;-1.644;2024-02-21T15:32:22;13.20;98.20
12622;DHT22;6376;48.182;-1.644;2024-02-21T15:34:48;13.20;98.50